上海/浦東 の空港の天気 - METARとTAF

上海浦東国際空港 ( ZSPD / PVG ) - 中国 上海市
飛行場実況気象(Metar)
観測時間04/25 22:30 CST (04/25 14:30 UTC)
風向・風速北東 4m/s
視程10km以上
天気現象
なし
気温15℃
湿度59%
気圧1016hPa
METARZSPD 251430Z 05004MPS CAVOK 15/07 Q1016 NOSIG
過去の天気等 Google飛行場航空写真 Wunderground天気予報

過去48時間のMETAR

飛行場予報(TAF)
発表時間: 4/25 17:12 CST (4/25 09:12 UTC)
予報対象時間: 25日20時 CST ~ 26日20時 CST
風向・風速北東 4m/s
視程5,000m
天気現象もや
全天の4割程度の雲 雲底高度 610m
26日6時 CST ~ 26日8時 CST に徐々に
風向・風速東 4m/s
TAF ZSPD 250912Z 2512/2612 05004MPS 5000 BR SCT020 TX22/2606Z TN12/2521Z
BECMG 2522/2524 10004MPS